sensor_id;sensor_type;location;lat;lon;timestamp;pressure;altitude;pressure_sealevel;temperature;humidity
23733;BME280;12047;53.450;-2.286;2023-12-20T00:01:40;101515.09;;;12.62;100.00
23733;BME280;12047;53.450;-2.286;2023-12-20T00:06:41;101524.34;;;12.58;100.00
23733;BME280;12047;53.450;-2.286;2023-12-20T00:11:41;101521.53;;;12.80;100.00
23733;BME280;12047;53.450;-2.286;2023-12-20T00:16:42;101518.59;;;12.63;100.00
23733;BME280;12047;53.450;-2.286;2023-12-20T00:21:42;101519.88;;;12.58;100.00
23733;BME280;12047;53.450;-2.286;2023-12-20T00:26:43;101519.47;;;12.93;100.00
23733;BME280;12047;53.450;-2.286;2023-12-20T00:31:43;101503.25;;;12.97;100.00
23733;BME280;12047;53.450;-2.286;2023-12-20T00:36:44;101532.34;;;12.68;100.00
23733;BME280;12047;53.450;-2.286;2023-12-20T00:41:45;101522.56;;;12.99;100.00
23733;BME280;12047;53.450;-2.286;2023-12-20T00:46:45;101517.63;;;12.84;100.00
23733;BME280;12047;53.450;-2.286;2023-12-20T00:51:45;101503.94;;;12.68;100.00
23733;BME280;12047;53.450;-2.286;2023-12-20T00:56:47;101506.44;;;12.90;100.00
23733;BME280;12047;53.450;-2.286;2023-12-20T01:01:47;101502.19;;;12.78;100.00
23733;BME280;12047;53.450;-2.286;2023-12-20T01:06:48;101491.94;;;13.14;100.00
23733;BME280;12047;53.450;-2.286;2023-12-20T01:11:49;101493.75;;;13.04;100.00
23733;BME280;12047;53.450;-2.286;2023-12-20T01:16:49;101481.09;;;12.86;100.00
23733;BME280;12047;53.450;-2.286;2023-12-20T01:21:49;101493.75;;;12.73;100.00
23733;BME280;12047;53.450;-2.286;2023-12-20T01:26:50;101488.56;;;13.12;100.00
23733;BME280;12047;53.450;-2.286;2023-12-20T01:31:50;101477.09;;;13.02;100.00
23733;BME280;12047;53.450;-2.286;2023-12-20T01:36:51;101484.63;;;12.97;100.00
23733;BME280;12047;53.450;-2.286;2023-12-20T01:41:51;101466.25;;;12.93;100.00
23733;BME280;12047;53.450;-2.286;2023-12-20T01:46:52;101456.31;;;12.86;100.00
23733;BME280;12047;53.450;-2.286;2023-12-20T01:51:56;101454.97;;;13.01;100.00
23733;BME280;12047;53.450;-2.286;2023-12-20T01:56:56;101450.81;;;13.18;100.00
23733;BME280;12047;53.450;-2.286;2023-12-20T02:01:58;101447.69;;;13.13;100.00
23733;BME280;12047;53.450;-2.286;2023-12-20T02:06:59;101454.38;;;12.98;100.00
23733;BME280;12047;53.450;-2.286;2023-12-20T02:12:00;101447.44;;;13.16;100.00
23733;BME280;12047;53.450;-2.286;2023-12-20T02:17:00;101453.38;;;13.29;100.00
23733;BME280;12047;53.450;-2.286;2023-12-20T02:22:10;101448.41;;;13.15;100.00
23733;BME280;12047;53.450;-2.286;2023-12-20T02:27:11;101458.31;;;13.03;100.00
23733;BME280;12047;53.450;-2.286;2023-12-20T02:32:12;101454.69;;;13.14;100.00
23733;BME280;12047;53.450;-2.286;2023-12-20T02:37:12;101450.75;;;12.99;100.00
23733;BME280;12047;53.450;-2.286;2023-12-20T02:42:13;101445.59;;;13.07;100.00
23733;BME280;12047;53.450;-2.286;2023-12-20T02:47:13;101439.34;;;13.17;100.00
23733;BME280;12047;53.450;-2.286;2023-12-20T02:52:14;101421.28;;;13.21;100.00
23733;BME280;12047;53.450;-2.286;2023-12-20T02:57:14;101435.38;;;13.12;100.00
23733;BME280;12047;53.450;-2.286;2023-12-20T03:02:15;101423.94;;;13.40;100.00
23733;BME280;12047;53.450;-2.286;2023-12-20T03:07:15;101428.22;;;13.12;100.00
23733;BME280;12047;53.450;-2.286;2023-12-20T03:12:16;101423.53;;;13.45;100.00
23733;BME280;12047;53.450;-2.286;2023-12-20T03:17:16;101422.56;;;13.55;100.00
23733;BME280;12047;53.450;-2.286;2023-12-20T03:22:16;101414.59;;;13.55;100.00
23733;BME280;12047;53.450;-2.286;2023-12-20T03:27:17;101406.31;;;13.49;100.00
23733;BME280;12047;53.450;-2.286;2023-12-20T03:32:17;101404.34;;;13.41;100.00
23733;BME280;12047;53.450;-2.286;2023-12-20T03:37:18;101407.84;;;13.32;100.00
23733;BME280;12047;53.450;-2.286;2023-12-20T03:42:18;101420.91;;;13.35;100.00
23733;BME280;12047;53.450;-2.286;2023-12-20T03:47:19;101401.41;;;13.35;100.00
23733;BME280;12047;53.450;-2.286;2023-12-20T03:52:19;101400.00;;;13.40;100.00
23733;BME280;12047;53.450;-2.286;2023-12-20T03:57:20;101402.38;;;13.43;100.00
23733;BME280;12047;53.450;-2.286;2023-12-20T04:02:20;101386.72;;;13.59;100.00
23733;BME280;12047;53.450;-2.286;2023-12-20T04:07:21;101386.97;;;13.56;100.00
23733;BME280;12047;53.450;-2.286;2023-12-20T04:12:21;101388.09;;;13.54;100.00
23733;BME280;12047;53.450;-2.286;2023-12-20T04:17:21;101384.31;;;13.56;100.00
23733;BME280;12047;53.450;-2.286;2023-12-20T04:22:25;101380.22;;;13.62;100.00
23733;BME280;12047;53.450;-2.286;2023-12-20T04:27:25;101376.88;;;13.70;100.00
23733;BME280;12047;53.450;-2.286;2023-12-20T04:32:26;101383.59;;;13.83;100.00
23733;BME280;12047;53.450;-2.286;2023-12-20T04:37:29;101380.50;;;13.69;100.00
23733;BME280;12047;53.450;-2.286;2023-12-20T04:42:29;101393.69;;;13.80;100.00
23733;BME280;12047;53.450;-2.286;2023-12-20T04:47:30;101383.03;;;13.70;100.00
23733;BME280;12047;53.450;-2.286;2023-12-20T04:52:30;101385.84;;;13.49;100.00
23733;BME280;12047;53.450;-2.286;2023-12-20T04:57:31;101400.69;;;13.81;100.00
23733;BME280;12047;53.450;-2.286;2023-12-20T05:02:32;101382.16;;;13.89;100.00
23733;BME280;12047;53.450;-2.286;2023-12-20T05:07:35;101387.81;;;13.57;100.00
23733;BME280;12047;53.450;-2.286;2023-12-20T05:12:35;101383.19;;;13.69;100.00
23733;BME280;12047;53.450;-2.286;2023-12-20T05:17:36;101370.00;;;13.77;100.00
23733;BME280;12047;53.450;-2.286;2023-12-20T05:22:36;101358.09;;;13.81;100.00
23733;BME280;12047;53.450;-2.286;2023-12-20T05:27:37;101357.25;;;13.71;100.00
23733;BME280;12047;53.450;-2.286;2023-12-20T05:32:37;101363.50;;;13.99;100.00
23733;BME280;12047;53.450;-2.286;2023-12-20T05:37:38;101381.03;;;13.91;100.00
23733;BME280;12047;53.450;-2.286;2023-12-20T05:42:38;101367.06;;;13.80;100.00
23733;BME280;12047;53.450;-2.286;2023-12-20T05:47:39;101375.41;;;13.94;100.00
23733;BME280;12047;53.450;-2.286;2023-12-20T05:52:40;101362.81;;;13.87;100.00
23733;BME280;12047;53.450;-2.286;2023-12-20T05:57:41;101358.09;;;13.61;100.00
23733;BME280;12047;53.450;-2.286;2023-12-20T06:02:44;101353.59;;;13.62;100.00
23733;BME280;12047;53.450;-2.286;2023-12-20T06:07:45;101347.16;;;13.84;100.00
23733;BME280;12047;53.450;-2.286;2023-12-20T06:12:47;101365.94;;;13.82;100.00
23733;BME280;12047;53.450;-2.286;2023-12-20T06:17:50;101358.50;;;13.76;100.00
23733;BME280;12047;53.450;-2.286;2023-12-20T06:22:50;101349.38;;;13.79;100.00
23733;BME280;12047;53.450;-2.286;2023-12-20T06:27:51;101351.19;;;13.88;100.00
23733;BME280;12047;53.450;-2.286;2023-12-20T06:32:52;101373.94;;;13.44;100.00
23733;BME280;12047;53.450;-2.286;2023-12-20T06:37:53;101374.63;;;13.65;100.00
23733;BME280;12047;53.450;-2.286;2023-12-20T06:42:53;101373.09;;;13.72;100.00
23733;BME280;12047;53.450;-2.286;2023-12-20T06:47:54;101371.13;;;13.65;100.00
23733;BME280;12047;53.450;-2.286;2023-12-20T06:52:55;101390.59;;;13.65;100.00
23733;BME280;12047;53.450;-2.286;2023-12-20T06:57:55;101365.13;;;13.53;100.00
23733;BME280;12047;53.450;-2.286;2023-12-20T07:02:56;101383.34;;;13.57;100.00
23733;BME280;12047;53.450;-2.286;2023-12-20T07:07:58;101380.66;;;13.19;100.00
23733;BME280;12047;53.450;-2.286;2023-12-20T07:12:58;101356.66;;;13.00;100.00
23733;BME280;12047;53.450;-2.286;2023-12-20T07:17:59;101369.31;;;13.55;100.00
23733;BME280;12047;53.450;-2.286;2023-12-20T07:23:00;101367.22;;;13.40;100.00
23733;BME280;12047;53.450;-2.286;2023-12-20T07:28:01;101365.81;;;13.45;100.00
23733;BME280;12047;53.450;-2.286;2023-12-20T07:33:01;101367.91;;;13.42;100.00
23733;BME280;12047;53.450;-2.286;2023-12-20T07:38:03;101372.00;;;13.55;100.00
23733;BME280;12047;53.450;-2.286;2023-12-20T07:43:03;101359.78;;;13.53;100.00
23733;BME280;12047;53.450;-2.286;2023-12-20T07:48:05;101355.44;;;13.42;100.00
23733;BME280;12047;53.450;-2.286;2023-12-20T07:53:05;101363.44;;;13.42;100.00
23733;BME280;12047;53.450;-2.286;2023-12-20T07:58:06;101362.88;;;13.48;100.00
23733;BME280;12047;53.450;-2.286;2023-12-20T08:03:06;101358.97;;;13.52;100.00
23733;BME280;12047;53.450;-2.286;2023-12-20T08:08:07;101355.03;;;13.56;100.00
23733;BME280;12047;53.450;-2.286;2023-12-20T08:13:08;101363.03;;;13.56;100.00
23733;BME280;12047;53.450;-2.286;2023-12-20T08:18:08;101371.53;;;13.70;100.00
23733;BME280;12047;53.450;-2.286;2023-12-20T08:23:09;101370.56;;;13.80;100.00
23733;BME280;12047;53.450;-2.286;2023-12-20T08:28:09;101368.47;;;13.74;100.00
23733;BME280;12047;53.450;-2.286;2023-12-20T08:33:10;101364.09;;;13.83;100.00
23733;BME280;12047;53.450;-2.286;2023-12-20T08:38:12;101359.50;;;13.66;100.00
23733;BME280;12047;53.450;-2.286;2023-12-20T08:43:13;101375.00;;;13.99;100.00
23733;BME280;12047;53.450;-2.286;2023-12-20T08:48:13;101373.47;;;13.96;100.00
23733;BME280;12047;53.450;-2.286;2023-12-20T08:53:15;101375.28;;;13.86;100.00
23733;BME280;12047;53.450;-2.286;2023-12-20T08:58:17;101377.28;;;13.75;100.00
23733;BME280;12047;53.450;-2.286;2023-12-20T09:03:17;101361.19;;;14.13;100.00
23733;BME280;12047;53.450;-2.286;2023-12-20T09:08:20;101363.50;;;13.99;100.00
23733;BME280;12047;53.450;-2.286;2023-12-20T09:13:24;101355.00;;;13.85;100.00
23733;BME280;12047;53.450;-2.286;2023-12-20T09:18:28;101358.78;;;13.83;100.00
23733;BME280;12047;53.450;-2.286;2023-12-20T09:23:28;101355.22;;;14.02;100.00
23733;BME280;12047;53.450;-2.286;2023-12-20T09:28:29;101342.03;;;14.10;100.00
23733;BME280;12047;53.450;-2.286;2023-12-20T09:33:29;101336.00;;;14.08;100.00
23733;BME280;12047;53.450;-2.286;2023-12-20T09:38:30;101354.25;;;13.93;100.00
23733;BME280;12047;53.450;-2.286;2023-12-20T09:43:35;101351.19;;;13.88;100.00
23733;BME280;12047;53.450;-2.286;2023-12-20T09:48:37;101339.22;;;14.02;100.00
23733;BME280;12047;53.450;-2.286;2023-12-20T09:53:39;101340.38;;;13.99;100.00
23733;BME280;12047;53.450;-2.286;2023-12-20T09:58:41;101336.59;;;13.92;100.00
23733;BME280;12047;53.450;-2.286;2023-12-20T10:03:42;101341.41;;;13.79;100.00
23733;BME280;12047;53.450;-2.286;2023-12-20T10:08:43;101319.41;;;13.67;100.00
23733;BME280;12047;53.450;-2.286;2023-12-20T10:13:47;101309.47;;;13.59;100.00
23733;BME280;12047;53.450;-2.286;2023-12-20T10:18:48;101315.41;;;14.00;100.00
23733;BME280;12047;53.450;-2.286;2023-12-20T10:23:49;101301.03;;;13.74;100.00
23733;BME280;12047;53.450;-2.286;2023-12-20T10:28:56;101280.34;;;13.58;100.00
23733;BME280;12047;53.450;-2.286;2023-12-20T10:34:03;101277.84;;;13.93;100.00
23733;BME280;12047;53.450;-2.286;2023-12-20T10:39:07;101264.84;;;13.81;100.00
23733;BME280;12047;53.450;-2.286;2023-12-20T10:44:10;101261.81;;;14.03;100.00
23733;BME280;12047;53.450;-2.286;2023-12-20T10:49:11;101226.81;;;13.88;100.00
23733;BME280;12047;53.450;-2.286;2023-12-20T10:54:13;101232.75;;;14.10;100.00
23733;BME280;12047;53.450;-2.286;2023-12-20T10:59:14;101239.69;;;14.20;100.00
23733;BME280;12047;53.450;-2.286;2023-12-20T11:04:25;101236.19;;;13.92;100.00
23733;BME280;12047;53.450;-2.286;2023-12-20T11:09:34;101221.91;;;14.39;100.00
23733;BME280;12047;53.450;-2.286;2023-12-20T11:20:04;101216.78;;;14.10;100.00
23733;BME280;12047;53.450;-2.286;2023-12-20T11:25:09;101209.53;;;14.47;100.00
23733;BME280;12047;53.450;-2.286;2023-12-20T11:30:11;101206.91;;;14.38;100.00
23733;BME280;12047;53.450;-2.286;2023-12-20T11:40:14;101192.31;;;14.42;100.00
23733;BME280;12047;53.450;-2.286;2023-12-20T11:45:17;101176.84;;;14.45;100.00
23733;BME280;12047;53.450;-2.286;2023-12-20T11:50:22;101178.78;;;14.53;100.00
23733;BME280;12047;53.450;-2.286;2023-12-20T11:55:24;101172.59;;;14.70;100.00
23733;BME280;12047;53.450;-2.286;2023-12-20T12:00:27;101172.06;;;14.49;100.00
23733;BME280;12047;53.450;-2.286;2023-12-20T12:05:30;101157.56;;;14.69;100.00
23733;BME280;12047;53.450;-2.286;2023-12-20T12:10:32;101152.84;;;14.63;100.00
23733;BME280;12047;53.450;-2.286;2023-12-20T12:15:32;101136.56;;;14.48;100.00
23733;BME280;12047;53.450;-2.286;2023-12-20T12:20:33;101135.81;;;14.56;100.00
23733;BME280;12047;53.450;-2.286;2023-12-20T12:25:35;101131.91;;;14.68;100.00
23733;BME280;12047;53.450;-2.286;2023-12-20T12:30:56;101104.16;;;14.25;100.00
23733;BME280;12047;53.450;-2.286;2023-12-20T12:35:56;101094.94;;;14.38;100.00
23733;BME280;12047;53.450;-2.286;2023-12-20T12:40:57;101084.66;;;14.60;100.00
23733;BME280;12047;53.450;-2.286;2023-12-20T12:45:59;101069.09;;;14.38;100.00
23733;BME280;12047;53.450;-2.286;2023-12-20T12:50:59;101056.19;;;14.25;100.00
23733;BME280;12047;53.450;-2.286;2023-12-20T12:55:59;101040.41;;;14.14;100.00
23733;BME280;12047;53.450;-2.286;2023-12-20T13:01:00;101036.06;;;14.49;100.00
23733;BME280;12047;53.450;-2.286;2023-12-20T13:06:01;101009.63;;;14.38;100.00
23733;BME280;12047;53.450;-2.286;2023-12-20T13:11:01;101014.22;;;14.27;100.00
23733;BME280;12047;53.450;-2.286;2023-12-20T13:16:04;101014.06;;;14.47;100.00
23733;BME280;12047;53.450;-2.286;2023-12-20T13:21:05;100986.50;;;14.20;100.00
23733;BME280;12047;53.450;-2.286;2023-12-20T13:26:06;100997.66;;;14.59;100.00
23733;BME280;12047;53.450;-2.286;2023-12-20T13:31:07;100983.31;;;14.35;100.00
23733;BME280;12047;53.450;-2.286;2023-12-20T13:36:08;100975.22;;;14.26;100.00
23733;BME280;12047;53.450;-2.286;2023-12-20T13:41:08;100990.97;;;14.38;100.00
23733;BME280;12047;53.450;-2.286;2023-12-20T13:46:09;100983.13;;;14.54;100.00
23733;BME280;12047;53.450;-2.286;2023-12-20T13:51:09;100954.66;;;14.62;100.00
23733;BME280;12047;53.450;-2.286;2023-12-20T13:56:10;100959.50;;;14.59;100.00
23733;BME280;12047;53.450;-2.286;2023-12-20T14:01:10;100939.41;;;14.47;100.00
23733;BME280;12047;53.450;-2.286;2023-12-20T14:06:11;100922.50;;;14.38;100.00
23733;BME280;12047;53.450;-2.286;2023-12-20T14:11:13;100922.00;;;14.35;100.00
23733;BME280;12047;53.450;-2.286;2023-12-20T14:16:16;100925.59;;;14.51;100.00
23733;BME280;12047;53.450;-2.286;2023-12-20T14:21:31;100917.84;;;14.40;100.00
23733;BME280;12047;53.450;-2.286;2023-12-20T14:26:32;100922.38;;;14.22;100.00
23733;BME280;12047;53.450;-2.286;2023-12-20T14:31:32;100895.38;;;14.43;100.00
23733;BME280;12047;53.450;-2.286;2023-12-20T14:36:34;100910.31;;;14.61;100.00
23733;BME280;12047;53.450;-2.286;2023-12-20T14:41:35;100883.84;;;14.34;100.00
23733;BME280;12047;53.450;-2.286;2023-12-20T14:46:35;100883.06;;;14.42;100.00
23733;BME280;12047;53.450;-2.286;2023-12-20T14:51:36;100882.81;;;14.61;100.00
23733;BME280;12047;53.450;-2.286;2023-12-20T14:56:37;100901.72;;;14.76;100.00
23733;BME280;12047;53.450;-2.286;2023-12-20T15:01:38;100884.09;;;14.49;100.00
23733;BME280;12047;53.450;-2.286;2023-12-20T15:06:40;100886.97;;;14.55;100.00
23733;BME280;12047;53.450;-2.286;2023-12-20T15:11:41;100886.13;;;14.55;100.00
23733;BME280;12047;53.450;-2.286;2023-12-20T15:16:41;100890.06;;;14.43;100.00
23733;BME280;12047;53.450;-2.286;2023-12-20T15:21:42;100874.66;;;14.62;100.00
23733;BME280;12047;53.450;-2.286;2023-12-20T15:26:43;100890.66;;;14.37;100.00
23733;BME280;12047;53.450;-2.286;2023-12-20T15:31:45;100898.81;;;14.61;100.00
23733;BME280;12047;53.450;-2.286;2023-12-20T15:36:46;100894.81;;;14.57;100.00
23733;BME280;12047;53.450;-2.286;2023-12-20T15:41:46;100891.00;;;14.59;100.00
23733;BME280;12047;53.450;-2.286;2023-12-20T15:46:47;100890.50;;;14.64;100.00
23733;BME280;12047;53.450;-2.286;2023-12-20T15:51:47;100901.22;;;14.72;100.00
23733;BME280;12047;53.450;-2.286;2023-12-20T15:56:48;100885.66;;;14.34;100.00
23733;BME280;12047;53.450;-2.286;2023-12-20T16:01:49;100876.91;;;14.83;100.00
23733;BME280;12047;53.450;-2.286;2023-12-20T16:06:49;100886.06;;;14.21;100.00
23733;BME280;12047;53.450;-2.286;2023-12-20T16:11:50;100894.09;;;14.47;100.00
23733;BME280;12047;53.450;-2.286;2023-12-20T16:16:50;100882.66;;;14.37;100.00
23733;BME280;12047;53.450;-2.286;2023-12-20T16:21:51;100872.13;;;14.61;100.00
23733;BME280;12047;53.450;-2.286;2023-12-20T16:26:51;100875.16;;;14.58;100.00
23733;BME280;12047;53.450;-2.286;2023-12-20T16:31:52;100870.50;;;14.34;100.00
23733;BME280;12047;53.450;-2.286;2023-12-20T16:36:54;100870.09;;;14.47;100.00
23733;BME280;12047;53.450;-2.286;2023-12-20T16:41:54;100867.31;;;14.56;100.00
23733;BME280;12047;53.450;-2.286;2023-12-20T16:46:55;100869.78;;;14.50;100.00
23733;BME280;12047;53.450;-2.286;2023-12-20T16:51:55;100836.81;;;14.59;100.00
23733;BME280;12047;53.450;-2.286;2023-12-20T16:56:56;100836.03;;;14.75;100.00
23733;BME280;12047;53.450;-2.286;2023-12-20T17:01:58;100821.66;;;14.59;100.00
23733;BME280;12047;53.450;-2.286;2023-12-20T17:07:02;100811.44;;;14.47;100.00
23733;BME280;12047;53.450;-2.286;2023-12-20T17:12:02;100816.50;;;14.66;100.00
23733;BME280;12047;53.450;-2.286;2023-12-20T17:17:04;100808.34;;;14.68;100.00
23733;BME280;12047;53.450;-2.286;2023-12-20T17:22:04;100814.19;;;14.71;100.00
23733;BME280;12047;53.450;-2.286;2023-12-20T17:27:06;100824.88;;;14.79;100.00
23733;BME280;12047;53.450;-2.286;2023-12-20T17:32:06;100836.72;;;14.85;100.00
23733;BME280;12047;53.450;-2.286;2023-12-20T17:37:07;100862.31;;;15.04;100.00
23733;BME280;12047;53.450;-2.286;2023-12-20T17:42:08;100861.94;;;14.98;100.00
23733;BME280;12047;53.450;-2.286;2023-12-20T17:47:08;100847.97;;;15.05;100.00
23733;BME280;12047;53.450;-2.286;2023-12-20T17:52:10;100853.81;;;15.08;100.00
23733;BME280;12047;53.450;-2.286;2023-12-20T17:57:11;100857.13;;;15.02;100.00
23733;BME280;12047;53.450;-2.286;2023-12-20T18:02:11;100866.56;;;14.88;100.00
23733;BME280;12047;53.450;-2.286;2023-12-20T18:07:12;100877.72;;;15.34;100.00
23733;BME280;12047;53.450;-2.286;2023-12-20T18:12:13;100872.97;;;15.12;100.00
23733;BME280;12047;53.450;-2.286;2023-12-20T18:17:14;100873.31;;;15.17;100.00
23733;BME280;12047;53.450;-2.286;2023-12-20T18:22:14;100865.97;;;15.03;100.00
23733;BME280;12047;53.450;-2.286;2023-12-20T18:27:15;100856.66;;;15.07;100.00
23733;BME280;12047;53.450;-2.286;2023-12-20T18:32:18;100862.47;;;15.02;100.00
23733;BME280;12047;53.450;-2.286;2023-12-20T18:37:19;100838.94;;;14.97;100.00
23733;BME280;12047;53.450;-2.286;2023-12-20T18:42:20;100837.81;;;15.08;100.00
23733;BME280;12047;53.450;-2.286;2023-12-20T18:47:20;100847.31;;;15.19;100.00
23733;BME280;12047;53.450;-2.286;2023-12-20T18:52:21;100853.56;;;14.77;100.00
23733;BME280;12047;53.450;-2.286;2023-12-20T18:57:23;100843.28;;;15.15;100.00
23733;BME280;12047;53.450;-2.286;2023-12-20T19:02:23;100837.28;;;15.05;100.00
23733;BME280;12047;53.450;-2.286;2023-12-20T19:07:24;100838.78;;;15.07;100.00
23733;BME280;12047;53.450;-2.286;2023-12-20T19:12:24;100844.31;;;15.22;100.00
23733;BME280;12047;53.450;-2.286;2023-12-20T19:17:27;100841.81;;;15.20;100.00
23733;BME280;12047;53.450;-2.286;2023-12-20T19:22:27;100823.28;;;15.19;100.00
23733;BME280;12047;53.450;-2.286;2023-12-20T19:27:32;100820.09;;;15.15;100.00
23733;BME280;12047;53.450;-2.286;2023-12-20T19:32:33;100824.13;;;15.36;100.00
23733;BME280;12047;53.450;-2.286;2023-12-20T19:37:33;100820.81;;;15.50;100.00
23733;BME280;12047;53.450;-2.286;2023-12-20T19:42:34;100805.28;;;15.37;100.00
23733;BME280;12047;53.450;-2.286;2023-12-20T19:47:37;100829.50;;;15.76;100.00
23733;BME280;12047;53.450;-2.286;2023-12-20T19:52:38;100833.19;;;15.67;100.00
23733;BME280;12047;53.450;-2.286;2023-12-20T19:57:38;100831.00;;;15.71;100.00
23733;BME280;12047;53.450;-2.286;2023-12-20T20:02:39;100806.97;;;15.71;100.00
23733;BME280;12047;53.450;-2.286;2023-12-20T20:07:39;100802.94;;;15.42;100.00
23733;BME280;12047;53.450;-2.286;2023-12-20T20:12:40;100806.25;;;15.93;100.00
23733;BME280;12047;53.450;-2.286;2023-12-20T20:17:40;100813.81;;;15.32;100.00
23733;BME280;12047;53.450;-2.286;2023-12-20T20:22:41;100811.66;;;15.77;100.00
23733;BME280;12047;53.450;-2.286;2023-12-20T20:27:41;100796.25;;;15.38;100.00
23733;BME280;12047;53.450;-2.286;2023-12-20T20:32:42;100775.91;;;15.37;100.00
23733;BME280;12047;53.450;-2.286;2023-12-20T20:37:45;100796.59;;;15.35;100.00
23733;BME280;12047;53.450;-2.286;2023-12-20T20:42:45;100781.25;;;15.37;100.00
23733;BME280;12047;53.450;-2.286;2023-12-20T20:47:46;100775.09;;;15.28;100.00
23733;BME280;12047;53.450;-2.286;2023-12-20T20:52:48;100777.41;;;15.23;100.00
23733;BME280;12047;53.450;-2.286;2023-12-20T20:57:51;100783.91;;;15.13;100.00
23733;BME280;12047;53.450;-2.286;2023-12-20T21:02:52;100782.59;;;15.33;100.00
23733;BME280;12047;53.450;-2.286;2023-12-20T21:07:52;100776.91;;;15.20;100.00
23733;BME280;12047;53.450;-2.286;2023-12-20T21:12:55;100766.25;;;15.20;100.00
23733;BME280;12047;53.450;-2.286;2023-12-20T21:17:55;100761.91;;;15.19;100.00
23733;BME280;12047;53.450;-2.286;2023-12-20T21:22:56;100774.91;;;15.06;100.00
23733;BME280;12047;53.450;-2.286;2023-12-20T21:27:58;100757.22;;;15.05;100.00
23733;BME280;12047;53.450;-2.286;2023-12-20T21:33:02;100742.91;;;15.06;100.00
23733;BME280;12047;53.450;-2.286;2023-12-20T21:38:02;100736.88;;;15.04;100.00
23733;BME280;12047;53.450;-2.286;2023-12-20T21:43:04;100743.22;;;14.94;100.00
23733;BME280;12047;53.450;-2.286;2023-12-20T21:48:05;100718.22;;;15.04;100.00
23733;BME280;12047;53.450;-2.286;2023-12-20T21:53:06;100725.72;;;15.08;100.00
23733;BME280;12047;53.450;-2.286;2023-12-20T21:58:10;100746.53;;;15.13;100.00
23733;BME280;12047;53.450;-2.286;2023-12-20T22:03:10;100719.50;;;15.40;100.00
23733;BME280;12047;53.450;-2.286;2023-12-20T22:08:11;100737.03;;;15.10;100.00
23733;BME280;12047;53.450;-2.286;2023-12-20T22:13:12;100731.22;;;14.98;100.00
23733;BME280;12047;53.450;-2.286;2023-12-20T22:18:12;100732.66;;;14.69;100.00
23733;BME280;12047;53.450;-2.286;2023-12-20T22:23:15;100715.19;;;14.82;100.00
23733;BME280;12047;53.450;-2.286;2023-12-20T22:28:17;100690.19;;;14.75;100.00
23733;BME280;12047;53.450;-2.286;2023-12-20T22:33:20;100659.84;;;14.84;100.00
23733;BME280;12047;53.450;-2.286;2023-12-20T22:38:20;100654.97;;;15.12;100.00
23733;BME280;12047;53.450;-2.286;2023-12-20T22:43:20;100639.28;;;15.25;100.00
23733;BME280;12047;53.450;-2.286;2023-12-20T22:48:21;100629.44;;;15.18;100.00
23733;BME280;12047;53.450;-2.286;2023-12-20T22:53:22;100638.13;;;15.20;100.00
23733;BME280;12047;53.450;-2.286;2023-12-20T22:58:22;100642.13;;;15.16;100.00
23733;BME280;12047;53.450;-2.286;2023-12-20T23:03:23;100656.00;;;15.03;100.00
23733;BME280;12047;53.450;-2.286;2023-12-20T23:08:25;100656.81;;;15.28;100.00
23733;BME280;12047;53.450;-2.286;2023-12-20T23:13:26;100664.94;;;15.35;100.00
23733;BME280;12047;53.450;-2.286;2023-12-20T23:18:26;100655.47;;;15.16;100.00
23733;BME280;12047;53.450;-2.286;2023-12-20T23:23:27;100627.88;;;15.40;100.00
23733;BME280;12047;53.450;-2.286;2023-12-20T23:28:27;100617.81;;;15.03;100.00
23733;BME280;12047;53.450;-2.286;2023-12-20T23:33:28;100603.47;;;15.04;100.00
23733;BME280;12047;53.450;-2.286;2023-12-20T23:38:28;100577.28;;;15.07;100.00
23733;BME280;12047;53.450;-2.286;2023-12-20T23:43:29;100555.78;;;14.92;100.00
23733;BME280;12047;53.450;-2.286;2023-12-20T23:48:30;100560.78;;;14.95;100.00
23733;BME280;12047;53.450;-2.286;2023-12-20T23:53:31;100543.75;;;15.05;100.00
23733;BME280;12047;53.450;-2.286;2023-12-20T23:58:31;100531.78;;;14.92;100.00
